KILM/ILM METAR and TAF weather

Enter ICAO airport designator
Station Type Date Time Source
KILM METAR 2021/03/05 19:28 UTC NOAA

KILM 051928Z 33012KT 10SM CLR 13/M05 A3005 RMK AO2 T01281050


Station Type Date Time Source
KILM Decoded METAR 2021/03/05 19:28 UTC NOAA

WILMINGTON INT'L AIRPORT, NC, United States (KILM) 34-16N 077-54W 9M
Mar 05, 2021 - 02:28 PM EST / 2021.03.05 1928 UTC
Wind: from the NNW (330 degrees) at 14 MPH (12 KT):0
Visibility: 10 mile(s):0
Sky conditions: clear
Temperature: 55.0 F (12.8 C)
Dew Point: 23.0 F (-5.0 C)
Relative Humidity: 28%
Pressure (altimeter): 30.05 in. Hg (1017 hPa)
ob: KILM 051928Z 33012KT 10SM CLR 13/M05 A3005 RMK AO2 T01281050
cycle: 19

Station Type Date Time Source
KILM TAF 2021/03/05 18:22 UTC NOAA

TAF KILM 051720Z 0518/0618 35010G15KT P6SM SKC
FM052200 35007KT P6SM SKC
FM060000 VRB03KT P6SM SCT150
FM061300 01006KT P6SM BKN100

Example: see airport list